sensor_id;sensor_type;location;lat;lon;timestamp;temperature;humidity
53978;DHT22;39886;47.984;-1.586;2024-01-16T12:49:05;22.10;51.00
53978;DHT22;39886;47.984;-1.586;2024-01-16T12:51:32;22.20;51.80
53978;DHT22;39886;47.984;-1.586;2024-01-16T12:54:13;22.20;75.50
53978;DHT22;39886;47.984;-1.586;2024-01-16T12:56:39;22.10;80.20
53978;DHT22;39886;47.984;-1.586;2024-01-16T12:59:10;22.10;84.40
53978;DHT22;39886;47.984;-1.586;2024-01-16T13:01:40;22.10;77.90
53978;DHT22;39886;47.984;-1.586;2024-01-16T13:04:07;22.10;62.90
53978;DHT22;39886;47.984;-1.586;2024-01-16T13:06:34;22.10;62.60
53978;DHT22;39886;47.984;-1.586;2024-01-16T13:09:08;22.00;63.30
53978;DHT22;39886;47.984;-1.586;2024-01-16T13:11:48;22.00;64.80
53978;DHT22;39886;47.984;-1.586;2024-01-16T13:14:15;21.90;65.30
53978;DHT22;39886;47.984;-1.586;2024-01-16T13:16:40;21.80;65.80
53978;DHT22;39886;47.984;-1.586;2024-01-16T13:19:06;21.80;65.70
53978;DHT22;39886;47.984;-1.586;2024-01-16T13:21:35;21.70;65.90
53978;DHT22;39886;47.984;-1.586;2024-01-16T13:24:03;21.60;66.20
53978;DHT22;39886;47.984;-1.586;2024-01-16T13:26:29;21.50;66.30
53978;DHT22;39886;47.984;-1.586;2024-01-16T13:28:54;21.50;66.20
53978;DHT22;39886;47.984;-1.586;2024-01-16T13:31:20;21.50;66.30
53978;DHT22;39886;47.984;-1.586;2024-01-16T13:33:46;21.40;66.40
53978;DHT22;39886;47.984;-1.586;2024-01-16T13:36:12;21.40;66.20
53978;DHT22;39886;47.984;-1.586;2024-01-16T13:38:38;21.30;66.40
53978;DHT22;39886;47.984;-1.586;2024-01-16T13:41:03;21.30;66.40
53978;DHT22;39886;47.984;-1.586;2024-01-16T13:43:29;21.20;66.00
53978;DHT22;39886;47.984;-1.586;2024-01-16T13:45:55;21.30;66.30
53978;DHT22;39886;47.984;-1.586;2024-01-16T13:48:21;21.20;65.70
53978;DHT22;39886;47.984;-1.586;2024-01-16T13:50:47;21.20;65.50
53978;DHT22;39886;47.984;-1.586;2024-01-16T13:53:12;21.10;65.70
53978;DHT22;39886;47.984;-1.586;2024-01-16T13:55:40;21.10;66.40
53978;DHT22;39886;47.984;-1.586;2024-01-16T13:58:07;21.10;65.80
53978;DHT22;39886;47.984;-1.586;2024-01-16T14:00:33;21.00;65.90
53978;DHT22;39886;47.984;-1.586;2024-01-16T14:02:59;21.00;66.80
53978;DHT22;39886;47.984;-1.586;2024-01-16T14:05:24;21.00;66.90
53978;DHT22;39886;47.984;-1.586;2024-01-16T14:07:52;21.00;67.00
53978;DHT22;39886;47.984;-1.586;2024-01-16T14:10:22;21.10;66.30
53978;DHT22;39886;47.984;-1.586;2024-01-16T14:12:49;21.20;66.00
53978;DHT22;39886;47.984;-1.586;2024-01-16T14:15:16;21.30;66.10
53978;DHT22;39886;47.984;-1.586;2024-01-16T14:17:54;21.40;66.80
53978;DHT22;39886;47.984;-1.586;2024-01-16T14:20:21;21.50;68.90
53978;DHT22;39886;47.984;-1.586;2024-01-16T14:22:50;21.60;71.20
53978;DHT22;39886;47.984;-1.586;2024-01-16T14:25:17;21.60;72.20
53978;DHT22;39886;47.984;-1.586;2024-01-16T14:27:47;21.70;71.70
53978;DHT22;39886;47.984;-1.586;2024-01-16T14:30:15;21.70;65.00
53978;DHT22;39886;47.984;-1.586;2024-01-16T14:32:43;21.80;65.50
53978;DHT22;39886;47.984;-1.586;2024-01-16T14:35:10;21.80;66.00
53978;DHT22;39886;47.984;-1.586;2024-01-16T14:37:36;21.90;65.40
53978;DHT22;39886;47.984;-1.586;2024-01-16T14:40:03;21.90;65.70
53978;DHT22;39886;47.984;-1.586;2024-01-16T14:42:33;21.90;64.70
53978;DHT22;39886;47.984;-1.586;2024-01-16T14:45:03;21.90;64.30
53978;DHT22;39886;47.984;-1.586;2024-01-16T14:47:29;21.90;64.20
53978;DHT22;39886;47.984;-1.586;2024-01-16T14:49:55;21.90;64.10
53978;DHT22;39886;47.984;-1.586;2024-01-16T14:52:21;22.00;63.50
53978;DHT22;39886;47.984;-1.586;2024-01-16T14:54:48;21.90;63.20
53978;DHT22;39886;47.984;-1.586;2024-01-16T14:57:15;22.00;63.20
53978;DHT22;39886;47.984;-1.586;2024-01-16T14:59:41;22.10;63.30
53978;DHT22;39886;47.984;-1.586;2024-01-16T15:02:07;22.00;63.00
53978;DHT22;39886;47.984;-1.586;2024-01-16T15:04:41;22.00;63.20
53978;DHT22;39886;47.984;-1.586;2024-01-16T15:07:08;22.00;63.20
53978;DHT22;39886;47.984;-1.586;2024-01-16T15:09:34;22.10;62.60
53978;DHT22;39886;47.984;-1.586;2024-01-16T15:12:06;22.10;63.40
53978;DHT22;39886;47.984;-1.586;2024-01-16T15:14:33;22.10;62.90
53978;DHT22;39886;47.984;-1.586;2024-01-16T15:17:02;22.20;63.00
53978;DHT22;39886;47.984;-1.586;2024-01-16T15:19:28;22.10;63.10
53978;DHT22;39886;47.984;-1.586;2024-01-16T15:21:54;22.10;63.10
53978;DHT22;39886;47.984;-1.586;2024-01-16T15:24:20;22.20;63.10
53978;DHT22;39886;47.984;-1.586;2024-01-16T15:26:54;22.10;63.00
53978;DHT22;39886;47.984;-1.586;2024-01-16T15:29:24;22.10;63.20
53978;DHT22;39886;47.984;-1.586;2024-01-16T15:31:49;21.90;63.40
53978;DHT22;39886;47.984;-1.586;2024-01-16T15:34:19;21.80;63.60
53978;DHT22;39886;47.984;-1.586;2024-01-16T15:36:45;21.80;64.30
53978;DHT22;39886;47.984;-1.586;2024-01-16T15:39:12;21.70;63.80
53978;DHT22;39886;47.984;-1.586;2024-01-16T15:41:41;21.60;64.20
53978;DHT22;39886;47.984;-1.586;2024-01-16T15:44:08;21.50;64.10
53978;DHT22;39886;47.984;-1.586;2024-01-16T15:46:52;21.50;64.20
53978;DHT22;39886;47.984;-1.586;2024-01-16T15:49:18;21.40;64.60
53978;DHT22;39886;47.984;-1.586;2024-01-16T15:51:44;21.30;64.00
53978;DHT22;39886;47.984;-1.586;2024-01-16T15:54:12;21.30;63.60
53978;DHT22;39886;47.984;-1.586;2024-01-16T15:56:38;21.20;64.40
53978;DHT22;39886;47.984;-1.586;2024-01-16T15:59:04;21.10;64.40
53978;DHT22;39886;47.984;-1.586;2024-01-16T16:01:30;21.10;64.20
53978;DHT22;39886;47.984;-1.586;2024-01-16T16:03:57;21.00;64.20
53978;DHT22;39886;47.984;-1.586;2024-01-16T16:06:23;21.00;63.90
53978;DHT22;39886;47.984;-1.586;2024-01-16T16:08:49;21.00;64.00
53978;DHT22;39886;47.984;-1.586;2024-01-16T16:11:15;20.90;64.10
53978;DHT22;39886;47.984;-1.586;2024-01-16T16:16:08;21.00;67.30
53978;DHT22;39886;47.984;-1.586;2024-01-16T16:18:33;21.10;68.50
53978;DHT22;39886;47.984;-1.586;2024-01-16T16:21:03;21.20;68.70
53978;DHT22;39886;47.984;-1.586;2024-01-16T16:23:30;21.30;68.30
53978;DHT22;39886;47.984;-1.586;2024-01-16T16:25:56;21.30;68.20
53978;DHT22;39886;47.984;-1.586;2024-01-16T16:28:22;21.40;68.20
53978;DHT22;39886;47.984;-1.586;2024-01-16T16:30:47;21.40;68.10
53978;DHT22;39886;47.984;-1.586;2024-01-16T16:33:13;21.40;68.00
53978;DHT22;39886;47.984;-1.586;2024-01-16T16:35:39;21.40;67.80
53978;DHT22;39886;47.984;-1.586;2024-01-16T16:38:05;21.40;66.80
53978;DHT22;39886;47.984;-1.586;2024-01-16T16:40:30;21.50;66.10
53978;DHT22;39886;47.984;-1.586;2024-01-16T16:42:57;21.50;65.70
53978;DHT22;39886;47.984;-1.586;2024-01-16T16:45:25;21.50;65.40
53978;DHT22;39886;47.984;-1.586;2024-01-16T16:47:51;21.50;65.20
53978;DHT22;39886;47.984;-1.586;2024-01-16T16:50:16;21.60;72.60
53978;DHT22;39886;47.984;-1.586;2024-01-16T16:52:42;21.60;72.80
53978;DHT22;39886;47.984;-1.586;2024-01-16T16:55:08;21.60;72.50
53978;DHT22;39886;47.984;-1.586;2024-01-16T16:57:34;21.60;72.60
53978;DHT22;39886;47.984;-1.586;2024-01-16T17:00:00;21.60;72.70
53978;DHT22;39886;47.984;-1.586;2024-01-16T17:02:25;21.50;72.70
53978;DHT22;39886;47.984;-1.586;2024-01-16T17:04:51;21.50;72.70
53978;DHT22;39886;47.984;-1.586;2024-01-16T17:07:17;21.50;72.70
53978;DHT22;39886;47.984;-1.586;2024-01-16T17:09:42;21.50;72.60
53978;DHT22;39886;47.984;-1.586;2024-01-16T17:12:08;21.50;72.60
53978;DHT22;39886;47.984;-1.586;2024-01-16T17:14:35;21.50;72.60
53978;DHT22;39886;47.984;-1.586;2024-01-16T17:17:00;21.50;72.60
53978;DHT22;39886;47.984;-1.586;2024-01-16T17:19:28;21.50;72.50
53978;DHT22;39886;47.984;-1.586;2024-01-16T17:21:54;21.50;72.50
53978;DHT22;39886;47.984;-1.586;2024-01-16T17:24:20;21.50;72.40
53978;DHT22;39886;47.984;-1.586;2024-01-16T17:26:45;21.50;72.40
53978;DHT22;39886;47.984;-1.586;2024-01-16T17:29:11;21.50;72.40
53978;DHT22;39886;47.984;-1.586;2024-01-16T17:31:37;21.50;72.20
53978;DHT22;39886;47.984;-1.586;2024-01-16T17:34:03;21.40;72.20
53978;DHT22;39886;47.984;-1.586;2024-01-16T17:36:28;21.30;72.40
53978;DHT22;39886;47.984;-1.586;2024-01-16T17:38:57;21.20;72.70
53978;DHT22;39886;47.984;-1.586;2024-01-16T17:41:28;21.00;72.90
53978;DHT22;39886;47.984;-1.586;2024-01-16T17:43:55;20.90;73.20
53978;DHT22;39886;47.984;-1.586;2024-01-16T17:46:21;20.70;73.40
53978;DHT22;39886;47.984;-1.586;2024-01-16T17:48:47;20.60;73.50
53978;DHT22;39886;47.984;-1.586;2024-01-16T17:51:13;20.50;73.70
53978;DHT22;39886;47.984;-1.586;2024-01-16T17:53:39;20.50;74.00
53978;DHT22;39886;47.984;-1.586;2024-01-16T17:56:07;20.40;74.40
53978;DHT22;39886;47.984;-1.586;2024-01-16T17:58:34;20.30;74.60
53978;DHT22;39886;47.984;-1.586;2024-01-16T18:00:59;20.30;75.00
53978;DHT22;39886;47.984;-1.586;2024-01-16T18:03:25;20.20;75.70
53978;DHT22;39886;47.984;-1.586;2024-01-16T18:05:54;20.10;76.50
53978;DHT22;39886;47.984;-1.586;2024-01-16T18:08:20;20.10;77.60
53978;DHT22;39886;47.984;-1.586;2024-01-16T18:10:47;20.00;78.90
53978;DHT22;39886;47.984;-1.586;2024-01-16T18:13:18;19.90;80.50
53978;DHT22;39886;47.984;-1.586;2024-01-16T18:15:44;19.90;82.00
53978;DHT22;39886;47.984;-1.586;2024-01-16T18:18:10;19.80;83.70
53978;DHT22;39886;47.984;-1.586;2024-01-16T18:20:40;19.80;85.70
53978;DHT22;39886;47.984;-1.586;2024-01-16T18:23:06;19.70;87.90
53978;DHT22;39886;47.984;-1.586;2024-01-16T18:25:32;19.70;90.20
53978;DHT22;39886;47.984;-1.586;2024-01-16T18:28:01;19.40;91.80
53978;DHT22;39886;47.984;-1.586;2024-01-16T18:30:27;19.50;90.60
53978;DHT22;39886;47.984;-1.586;2024-01-16T18:32:53;19.50;90.10
53978;DHT22;39886;47.984;-1.586;2024-01-16T18:35:20;19.50;89.50
53978;DHT22;39886;47.984;-1.586;2024-01-16T18:37:46;19.40;90.00
53978;DHT22;39886;47.984;-1.586;2024-01-16T18:40:13;19.40;90.50
53978;DHT22;39886;47.984;-1.586;2024-01-16T18:50:10;19.20;92.50
53978;DHT22;39886;47.984;-1.586;2024-01-16T18:52:37;19.20;92.30
53978;DHT22;39886;47.984;-1.586;2024-01-16T18:55:06;19.10;92.60
53978;DHT22;39886;47.984;-1.586;2024-01-16T18:57:36;19.10;92.00
53978;DHT22;39886;47.984;-1.586;2024-01-16T19:00:05;19.10;91.90
53978;DHT22;39886;47.984;-1.586;2024-01-16T19:02:31;19.00;90.90
53978;DHT22;39886;47.984;-1.586;2024-01-16T19:04:57;19.00;87.20
53978;DHT22;39886;47.984;-1.586;2024-01-16T19:07:23;18.90;91.80
53978;DHT22;39886;47.984;-1.586;2024-01-16T19:09:49;18.90;86.20
53978;DHT22;39886;47.984;-1.586;2024-01-16T19:12:14;18.80;92.10
53978;DHT22;39886;47.984;-1.586;2024-01-16T19:14:40;18.90;85.00
53978;DHT22;39886;47.984;-1.586;2024-01-16T19:17:06;18.80;87.50
53978;DHT22;39886;47.984;-1.586;2024-01-16T19:19:34;18.80;90.20
53978;DHT22;39886;47.984;-1.586;2024-01-16T19:22:00;18.80;90.70
53978;DHT22;39886;47.984;-1.586;2024-01-16T19:24:25;18.70;87.50
53978;DHT22;39886;47.984;-1.586;2024-01-16T19:26:52;18.70;84.10
53978;DHT22;39886;47.984;-1.586;2024-01-16T19:29:18;18.70;83.10
53978;DHT22;39886;47.984;-1.586;2024-01-16T19:31:45;18.60;82.70
53978;DHT22;39886;47.984;-1.586;2024-01-16T19:34:11;18.60;81.40
53978;DHT22;39886;47.984;-1.586;2024-01-16T19:36:37;18.60;81.00
53978;DHT22;39886;47.984;-1.586;2024-01-16T19:39:09;18.60;80.90
53978;DHT22;39886;47.984;-1.586;2024-01-16T19:41:40;18.50;80.80
53978;DHT22;39886;47.984;-1.586;2024-01-16T19:44:11;18.50;80.20
53978;DHT22;39886;47.984;-1.586;2024-01-16T19:46:41;18.50;79.40
53978;DHT22;39886;47.984;-1.586;2024-01-16T19:49:07;18.50;79.60
53978;DHT22;39886;47.984;-1.586;2024-01-16T19:51:36;18.40;79.10
53978;DHT22;39886;47.984;-1.586;2024-01-16T19:54:04;18.40;79.00
53978;DHT22;39886;47.984;-1.586;2024-01-16T19:56:32;18.40;79.00
53978;DHT22;39886;47.984;-1.586;2024-01-16T19:58:58;18.40;79.10
53978;DHT22;39886;47.984;-1.586;2024-01-16T20:01:30;18.40;79.20
53978;DHT22;39886;47.984;-1.586;2024-01-16T20:03:57;18.30;79.30
53978;DHT22;39886;47.984;-1.586;2024-01-16T20:06:23;18.30;79.50
53978;DHT22;39886;47.984;-1.586;2024-01-16T20:08:49;18.30;79.70
53978;DHT22;39886;47.984;-1.586;2024-01-16T20:11:28;18.30;80.20
53978;DHT22;39886;47.984;-1.586;2024-01-16T20:13:54;18.20;80.70
53978;DHT22;39886;47.984;-1.586;2024-01-16T20:16:21;18.20;80.90
53978;DHT22;39886;47.984;-1.586;2024-01-16T20:18:48;18.10;81.20
53978;DHT22;39886;47.984;-1.586;2024-01-16T20:21:14;18.10;81.90
53978;DHT22;39886;47.984;-1.586;2024-01-16T20:23:40;18.10;83.50
53978;DHT22;39886;47.984;-1.586;2024-01-16T20:26:06;18.10;83.50
53978;DHT22;39886;47.984;-1.586;2024-01-16T20:28:31;18.10;84.70
53978;DHT22;39886;47.984;-1.586;2024-01-16T20:30:57;17.70;92.10
53978;DHT22;39886;47.984;-1.586;2024-01-16T20:33:23;18.00;74.40
53978;DHT22;39886;47.984;-1.586;2024-01-16T20:35:49;18.00;74.00
53978;DHT22;39886;47.984;-1.586;2024-01-16T20:38:17;18.00;73.90
53978;DHT22;39886;47.984;-1.586;2024-01-16T20:40:43;17.90;73.90
53978;DHT22;39886;47.984;-1.586;2024-01-16T20:43:09;17.90;73.80
53978;DHT22;39886;47.984;-1.586;2024-01-16T20:45:35;17.90;73.50
53978;DHT22;39886;47.984;-1.586;2024-01-16T20:48:00;17.90;73.60
53978;DHT22;39886;47.984;-1.586;2024-01-16T20:50:26;17.90;73.60
53978;DHT22;39886;47.984;-1.586;2024-01-16T20:52:52;17.80;73.50
53978;DHT22;39886;47.984;-1.586;2024-01-16T20:55:18;17.80;73.60
53978;DHT22;39886;47.984;-1.586;2024-01-16T20:57:43;17.80;73.40
53978;DHT22;39886;47.984;-1.586;2024-01-16T21:00:09;17.80;73.60
53978;DHT22;39886;47.984;-1.586;2024-01-16T21:02:37;17.80;73.70
53978;DHT22;39886;47.984;-1.586;2024-01-16T21:05:06;17.80;73.60
53978;DHT22;39886;47.984;-1.586;2024-01-16T21:07:32;17.80;73.20
53978;DHT22;39886;47.984;-1.586;2024-01-16T21:09:58;17.70;73.40
53978;DHT22;39886;47.984;-1.586;2024-01-16T21:12:24;17.70;73.10
53978;DHT22;39886;47.984;-1.586;2024-01-16T21:14:49;17.70;73.40
53978;DHT22;39886;47.984;-1.586;2024-01-16T21:17:15;17.60;72.90
53978;DHT22;39886;47.984;-1.586;2024-01-16T21:19:41;17.60;72.90
53978;DHT22;39886;47.984;-1.586;2024-01-16T21:22:07;17.70;72.80
53978;DHT22;39886;47.984;-1.586;2024-01-16T21:24:36;17.60;72.80
53978;DHT22;39886;47.984;-1.586;2024-01-16T21:27:02;17.60;72.80
53978;DHT22;39886;47.984;-1.586;2024-01-16T21:29:28;17.60;72.60
53978;DHT22;39886;47.984;-1.586;2024-01-16T21:31:54;17.50;72.50
53978;DHT22;39886;47.984;-1.586;2024-01-16T21:34:20;17.50;72.60
53978;DHT22;39886;47.984;-1.586;2024-01-16T21:36:50;17.50;72.60
53978;DHT22;39886;47.984;-1.586;2024-01-16T21:39:19;17.50;72.60
53978;DHT22;39886;47.984;-1.586;2024-01-16T21:41:48;17.50;72.60
53978;DHT22;39886;47.984;-1.586;2024-01-16T21:44:13;17.50;72.50
53978;DHT22;39886;47.984;-1.586;2024-01-16T21:46:39;17.50;72.60
53978;DHT22;39886;47.984;-1.586;2024-01-16T21:49:07;17.50;72.60
53978;DHT22;39886;47.984;-1.586;2024-01-16T21:51:33;17.40;72.50
53978;DHT22;39886;47.984;-1.586;2024-01-16T21:53:58;17.40;72.40
53978;DHT22;39886;47.984;-1.586;2024-01-16T21:56:26;17.40;72.40
53978;DHT22;39886;47.984;-1.586;2024-01-16T21:58:53;17.40;72.50
53978;DHT22;39886;47.984;-1.586;2024-01-16T22:01:18;17.30;72.30
53978;DHT22;39886;47.984;-1.586;2024-01-16T22:03:44;17.40;72.60
53978;DHT22;39886;47.984;-1.586;2024-01-16T22:06:10;17.40;72.50
53978;DHT22;39886;47.984;-1.586;2024-01-16T22:08:36;17.30;72.40
53978;DHT22;39886;47.984;-1.586;2024-01-16T22:11:02;17.30;72.40
53978;DHT22;39886;47.984;-1.586;2024-01-16T22:13:30;17.30;72.30
53978;DHT22;39886;47.984;-1.586;2024-01-16T22:15:55;17.30;72.30
53978;DHT22;39886;47.984;-1.586;2024-01-16T22:18:21;17.30;72.40
53978;DHT22;39886;47.984;-1.586;2024-01-16T22:20:47;17.30;72.40
53978;DHT22;39886;47.984;-1.586;2024-01-16T22:23:12;17.20;72.30
53978;DHT22;39886;47.984;-1.586;2024-01-16T22:25:38;17.20;72.90
53978;DHT22;39886;47.984;-1.586;2024-01-16T22:28:05;17.20;72.30
53978;DHT22;39886;47.984;-1.586;2024-01-16T22:30:31;17.20;72.30
53978;DHT22;39886;47.984;-1.586;2024-01-16T22:32:56;17.20;72.30
53978;DHT22;39886;47.984;-1.586;2024-01-16T22:35:25;17.20;72.20
53978;DHT22;39886;47.984;-1.586;2024-01-16T22:37:51;17.20;72.10
53978;DHT22;39886;47.984;-1.586;2024-01-16T22:40:18;17.10;72.20
53978;DHT22;39886;47.984;-1.586;2024-01-16T22:42:43;17.10;72.10
53978;DHT22;39886;47.984;-1.586;2024-01-16T22:45:11;17.10;72.10
53978;DHT22;39886;47.984;-1.586;2024-01-16T22:47:37;17.10;72.20
53978;DHT22;39886;47.984;-1.586;2024-01-16T22:50:04;17.10;72.10
53978;DHT22;39886;47.984;-1.586;2024-01-16T22:52:30;17.10;72.00
53978;DHT22;39886;47.984;-1.586;2024-01-16T22:54:56;17.10;72.10
53978;DHT22;39886;47.984;-1.586;2024-01-16T22:57:22;17.10;72.20
53978;DHT22;39886;47.984;-1.586;2024-01-16T22:59:48;17.10;72.20
53978;DHT22;39886;47.984;-1.586;2024-01-16T23:02:14;17.10;72.20
53978;DHT22;39886;47.984;-1.586;2024-01-16T23:04:39;17.00;72.00
53978;DHT22;39886;47.984;-1.586;2024-01-16T23:07:05;17.00;72.10
53978;DHT22;39886;47.984;-1.586;2024-01-16T23:09:31;17.00;72.10
53978;DHT22;39886;47.984;-1.586;2024-01-16T23:11:58;17.00;72.10
53978;DHT22;39886;47.984;-1.586;2024-01-16T23:14:24;17.00;72.10
53978;DHT22;39886;47.984;-1.586;2024-01-16T23:16:50;17.00;72.10
53978;DHT22;39886;47.984;-1.586;2024-01-16T23:19:16;17.00;72.10
53978;DHT22;39886;47.984;-1.586;2024-01-16T23:21:45;17.00;72.10
53978;DHT22;39886;47.984;-1.586;2024-01-16T23:24:11;17.00;72.20
53978;DHT22;39886;47.984;-1.586;2024-01-16T23:26:37;17.00;72.20
53978;DHT22;39886;47.984;-1.586;2024-01-16T23:29:02;16.90;72.10
53978;DHT22;39886;47.984;-1.586;2024-01-16T23:31:28;16.90;72.10
53978;DHT22;39886;47.984;-1.586;2024-01-16T23:33:54;16.90;72.10
53978;DHT22;39886;47.984;-1.586;2024-01-16T23:36:19;16.90;71.90
53978;DHT22;39886;47.984;-1.586;2024-01-16T23:38:45;17.00;71.80
53978;DHT22;39886;47.984;-1.586;2024-01-16T23:41:11;17.20;71.50
53978;DHT22;39886;47.984;-1.586;2024-01-16T23:43:37;17.30;71.20
53978;DHT22;39886;47.984;-1.586;2024-01-16T23:46:03;17.50;70.90
53978;DHT22;39886;47.984;-1.586;2024-01-16T23:48:32;17.50;70.80
53978;DHT22;39886;47.984;-1.586;2024-01-16T23:50:58;17.60;70.60
53978;DHT22;39886;47.984;-1.586;2024-01-16T23:53:23;17.70;70.50
53978;DHT22;39886;47.984;-1.586;2024-01-16T23:55:50;17.80;70.20
53978;DHT22;39886;47.984;-1.586;2024-01-16T23:58:17;17.80;70.00
